sensor_id;sensor_type;location;lat;lon;timestamp;pressure;altitude;pressure_sealevel;temperature;humidity
17615;BME280;8926;49.720;6.576;2022-12-16T00:02:11;98972.75;;;-3.97;78.64
17615;BME280;8926;49.720;6.576;2022-12-16T00:04:37;98972.75;;;-3.97;78.80
17615;BME280;8926;49.720;6.576;2022-12-16T00:07:02;98974.47;;;-3.99;78.43
17615;BME280;8926;49.720;6.576;2022-12-16T00:09:27;98979.53;;;-3.96;78.71
17615;BME280;8926;49.720;6.576;2022-12-16T00:11:52;98974.47;;;-3.99;78.64
17615;BME280;8926;49.720;6.576;2022-12-16T00:14:18;98981.25;;;-3.98;78.61
17615;BME280;8926;49.720;6.576;2022-12-16T00:16:43;98976.97;;;-3.96;78.45
17615;BME280;8926;49.720;6.576;2022-12-16T00:19:08;98981.25;;;-3.97;78.76
17615;BME280;8926;49.720;6.576;2022-12-16T00:21:34;98990.56;;;-3.96;78.79
17615;BME280;8926;49.720;6.576;2022-12-16T00:24:00;98983.78;;;-3.97;78.51
17615;BME280;8926;49.720;6.576;2022-12-16T00:26:25;98986.28;;;-3.92;78.52
17615;BME280;8926;49.720;6.576;2022-12-16T00:28:51;98984.59;;;-3.92;79.25
17615;BME280;8926;49.720;6.576;2022-12-16T00:31:16;98982.78;;;-3.85;78.69
17615;BME280;8926;49.720;6.576;2022-12-16T00:33:41;98983.66;;;-3.86;79.13
17615;BME280;8926;49.720;6.576;2022-12-16T00:36:07;98988.84;;;-3.92;78.65
17615;BME280;8926;49.720;6.576;2022-12-16T00:38:33;98986.31;;;-3.95;78.51
17615;BME280;8926;49.720;6.576;2022-12-16T00:40:58;98990.63;;;-4.00;78.42
17615;BME280;8926;49.720;6.576;2022-12-16T00:43:24;98996.59;;;-4.01;78.57
17615;BME280;8926;49.720;6.576;2022-12-16T00:45:49;98988.94;;;-4.03;78.55
17615;BME280;8926;49.720;6.576;2022-12-16T00:48:15;98987.28;;;-4.07;79.13
17615;BME280;8926;49.720;6.576;2022-12-16T00:50:44;98994.09;;;-4.07;78.98
17615;BME280;8926;49.720;6.576;2022-12-16T00:53:10;98993.19;;;-4.03;78.76
17615;BME280;8926;49.720;6.576;2022-12-16T00:55:35;98994.97;;;-4.12;78.66
17615;BME280;8926;49.720;6.576;2022-12-16T00:58:00;98995.00;;;-4.15;78.85
17615;BME280;8926;49.720;6.576;2022-12-16T01:00:26;98993.41;;;-4.22;78.38
17615;BME280;8926;49.720;6.576;2022-12-16T01:02:51;98998.50;;;-4.22;78.78
17615;BME280;8926;49.720;6.576;2022-12-16T01:05:19;99006.97;;;-4.20;79.26
17615;BME280;8926;49.720;6.576;2022-12-16T01:07:46;99005.28;;;-4.21;78.42
17615;BME280;8926;49.720;6.576;2022-12-16T01:10:12;99000.19;;;-4.21;78.08
17615;BME280;8926;49.720;6.576;2022-12-16T01:12:37;99008.72;;;-4.25;78.26
17615;BME280;8926;49.720;6.576;2022-12-16T01:15:06;99010.41;;;-4.24;78.21
17615;BME280;8926;49.720;6.576;2022-12-16T01:17:32;99011.25;;;-4.23;77.94
17615;BME280;8926;49.720;6.576;2022-12-16T01:19:58;99024.00;;;-4.25;78.30
17615;BME280;8926;49.720;6.576;2022-12-16T01:22:23;99030.03;;;-4.32;77.88
17615;BME280;8926;49.720;6.576;2022-12-16T01:24:49;99033.44;;;-4.33;78.43
17615;BME280;8926;49.720;6.576;2022-12-16T01:27:14;99029.19;;;-4.34;78.18
17615;BME280;8926;49.720;6.576;2022-12-16T01:29:41;99040.22;;;-4.32;78.01
17615;BME280;8926;49.720;6.576;2022-12-16T01:32:16;99043.63;;;-4.33;78.42
17615;BME280;8926;49.720;6.576;2022-12-16T01:34:42;99044.53;;;-4.40;78.76
17615;BME280;8926;49.720;6.576;2022-12-16T01:37:10;99051.28;;;-4.36;78.78
17615;BME280;8926;49.720;6.576;2022-12-16T01:39:36;99042.78;;;-4.35;78.54
17615;BME280;8926;49.720;6.576;2022-12-16T01:42:01;99048.75;;;-4.37;78.22
17615;BME280;8926;49.720;6.576;2022-12-16T01:44:27;99053.88;;;-4.40;78.59
17615;BME280;8926;49.720;6.576;2022-12-16T01:46:58;99053.03;;;-4.41;78.39
17615;BME280;8926;49.720;6.576;2022-12-16T01:49:25;99047.94;;;-4.41;78.25
17615;BME280;8926;49.720;6.576;2022-12-16T01:51:54;99054.78;;;-4.46;77.99
17615;BME280;8926;49.720;6.576;2022-12-16T01:54:28;99063.31;;;-4.49;78.57
17615;BME280;8926;49.720;6.576;2022-12-16T01:57:05;99054.00;;;-4.56;77.68
17615;BME280;8926;49.720;6.576;2022-12-16T01:59:33;99065.09;;;-4.64;78.09
17615;BME280;8926;49.720;6.576;2022-12-16T02:02:01;99062.53;;;-4.63;77.92
17615;BME280;8926;49.720;6.576;2022-12-16T02:04:26;99060.00;;;-4.64;78.24
17615;BME280;8926;49.720;6.576;2022-12-16T02:06:52;99066.78;;;-4.63;78.62
17615;BME280;8926;49.720;6.576;2022-12-16T02:09:18;99063.41;;;-4.65;78.33
17615;BME280;8926;49.720;6.576;2022-12-16T02:17:16;99059.25;;;-4.75;78.67
17615;BME280;8926;49.720;6.576;2022-12-16T02:22:43;99065.19;;;-4.76;78.45
17615;BME280;8926;49.720;6.576;2022-12-16T02:27:59;99064.34;;;-4.79;78.35
17615;BME280;8926;49.720;6.576;2022-12-16T02:30:37;99055.91;;;-4.88;77.99
17615;BME280;8926;49.720;6.576;2022-12-16T02:36:00;99054.28;;;-4.97;77.76
17615;BME280;8926;49.720;6.576;2022-12-16T02:38:56;99059.38;;;-4.97;78.65
17615;BME280;8926;49.720;6.576;2022-12-16T02:46:22;99060.16;;;-4.89;78.64
17615;BME280;8926;49.720;6.576;2022-12-16T02:48:49;99069.47;;;-4.83;78.35
17615;BME280;8926;49.720;6.576;2022-12-16T02:51:14;99071.16;;;-4.81;78.04
17615;BME280;8926;49.720;6.576;2022-12-16T02:53:41;99075.41;;;-4.80;78.44
17615;BME280;8926;49.720;6.576;2022-12-16T02:56:26;99082.22;;;-4.85;78.03
17615;BME280;8926;49.720;6.576;2022-12-16T02:59:04;99078.81;;;-4.84;78.18
17615;BME280;8926;49.720;6.576;2022-12-16T03:01:37;99083.91;;;-4.84;77.96
17615;BME280;8926;49.720;6.576;2022-12-16T03:04:36;99081.38;;;-4.84;78.23
17615;BME280;8926;49.720;6.576;2022-12-16T03:06:59;99087.28;;;-4.82;77.62
17615;BME280;8926;49.720;6.576;2022-12-16T03:09:28;99089.03;;;-4.93;77.46
17615;BME280;8926;49.720;6.576;2022-12-16T03:11:56;99089.03;;;-4.93;77.80
17615;BME280;8926;49.720;6.576;2022-12-16T03:14:26;99094.19;;;-4.99;77.55
17615;BME280;8926;49.720;6.576;2022-12-16T03:16:53;99089.97;;;-5.03;77.81
17615;BME280;8926;49.720;6.576;2022-12-16T03:19:20;99085.72;;;-5.04;77.92
17615;BME280;8926;49.720;6.576;2022-12-16T03:21:54;99077.25;;;-5.06;78.32
17615;BME280;8926;49.720;6.576;2022-12-16T03:24:24;99087.44;;;-5.09;78.14
17615;BME280;8926;49.720;6.576;2022-12-16T03:32:39;99089.22;;;-5.23;77.62
17615;BME280;8926;49.720;6.576;2022-12-16T03:37:54;99095.16;;;-5.26;78.19
17615;BME280;8926;49.720;6.576;2022-12-16T03:40:23;99094.31;;;-5.26;78.31
17615;BME280;8926;49.720;6.576;2022-12-16T03:42:50;99091.75;;;-5.22;78.82
17615;BME280;8926;49.720;6.576;2022-12-16T03:45:21;99087.47;;;-5.18;78.56
17615;BME280;8926;49.720;6.576;2022-12-16T03:47:55;99098.56;;;-5.22;78.28
17615;BME280;8926;49.720;6.576;2022-12-16T03:50:25;99100.25;;;-5.21;78.42
17615;BME280;8926;49.720;6.576;2022-12-16T03:52:52;99106.97;;;-5.14;78.12
17615;BME280;8926;49.720;6.576;2022-12-16T03:55:17;99107.88;;;-5.21;77.91
17615;BME280;8926;49.720;6.576;2022-12-16T03:57:43;99116.38;;;-5.31;77.15
17615;BME280;8926;49.720;6.576;2022-12-16T04:00:09;99115.53;;;-5.35;77.61
17615;BME280;8926;49.720;6.576;2022-12-16T04:02:34;99113.00;;;-5.39;77.43
17615;BME280;8926;49.720;6.576;2022-12-16T04:04:59;99115.56;;;-5.44;77.50
17615;BME280;8926;49.720;6.576;2022-12-16T04:07:24;99119.84;;;-5.48;78.00
17615;BME280;8926;49.720;6.576;2022-12-16T04:09:51;99111.38;;;-5.47;78.10
17615;BME280;8926;49.720;6.576;2022-12-16T04:12:17;99115.56;;;-5.44;78.06
17615;BME280;8926;49.720;6.576;2022-12-16T04:15:03;99114.75;;;-5.48;78.11
17615;BME280;8926;49.720;6.576;2022-12-16T04:17:46;99116.41;;;-5.43;77.96
17615;BME280;8926;49.720;6.576;2022-12-16T04:20:31;99119.00;;;-5.48;77.87
17615;BME280;8926;49.720;6.576;2022-12-16T04:23:17;99124.94;;;-5.57;77.74
17615;BME280;8926;49.720;6.576;2022-12-16T04:26:02;99126.63;;;-5.59;78.00
17615;BME280;8926;49.720;6.576;2022-12-16T04:28:27;99130.03;;;-5.63;77.66
17615;BME280;8926;49.720;6.576;2022-12-16T04:30:52;99135.13;;;-5.66;77.84
17615;BME280;8926;49.720;6.576;2022-12-16T04:33:18;99130.88;;;-5.71;77.79
17615;BME280;8926;49.720;6.576;2022-12-16T04:36:02;99146.16;;;-5.71;78.28
17615;BME280;8926;49.720;6.576;2022-12-16T04:38:46;99143.59;;;-5.70;78.19
17615;BME280;8926;49.720;6.576;2022-12-16T04:41:30;99142.75;;;-5.66;77.98
17615;BME280;8926;49.720;6.576;2022-12-16T04:44:14;99145.31;;;-5.69;78.01
17615;BME280;8926;49.720;6.576;2022-12-16T04:46:58;99153.78;;;-5.70;78.05
17615;BME280;8926;49.720;6.576;2022-12-16T04:49:42;99156.31;;;-5.71;77.99
17615;BME280;8926;49.720;6.576;2022-12-16T04:52:26;99163.97;;;-5.79;77.95
17615;BME280;8926;49.720;6.576;2022-12-16T04:55:10;99175.84;;;-5.78;78.33
17615;BME280;8926;49.720;6.576;2022-12-16T04:57:56;99177.56;;;-5.77;78.99
17615;BME280;8926;49.720;6.576;2022-12-16T05:00:40;99181.78;;;-5.82;78.83
17615;BME280;8926;49.720;6.576;2022-12-16T05:03:25;99189.41;;;-5.85;78.85
17615;BME280;8926;49.720;6.576;2022-12-16T05:06:09;99202.97;;;-5.77;78.74
17615;BME280;8926;49.720;6.576;2022-12-16T05:08:53;99202.13;;;-5.74;78.55
17615;BME280;8926;49.720;6.576;2022-12-16T05:11:37;99197.88;;;-5.65;78.69
17615;BME280;8926;49.720;6.576;2022-12-16T05:14:21;99201.25;;;-5.66;78.32
17615;BME280;8926;49.720;6.576;2022-12-16T05:17:05;99201.25;;;-5.69;78.13
17615;BME280;8926;49.720;6.576;2022-12-16T05:19:49;99195.31;;;-5.63;78.47
17615;BME280;8926;49.720;6.576;2022-12-16T05:22:33;99198.72;;;-5.66;78.33
17615;BME280;8926;49.720;6.576;2022-12-16T05:25:17;99202.97;;;-5.62;77.92
17615;BME280;8926;49.720;6.576;2022-12-16T05:28:01;99212.28;;;-5.70;78.13
17615;BME280;8926;49.720;6.576;2022-12-16T05:30:45;99211.47;;;-5.72;77.99
17615;BME280;8926;49.720;6.576;2022-12-16T05:33:29;99218.25;;;-5.74;78.63
17615;BME280;8926;49.720;6.576;2022-12-16T05:36:13;99224.16;;;-5.70;77.95
17615;BME280;8926;49.720;6.576;2022-12-16T05:38:57;99227.53;;;-5.70;78.15
17615;BME280;8926;49.720;6.576;2022-12-16T05:41:41;99228.41;;;-5.74;77.55
17615;BME280;8926;49.720;6.576;2022-12-16T05:44:25;99231.78;;;-5.87;78.21
17615;BME280;8926;49.720;6.576;2022-12-16T05:47:09;99240.28;;;-5.94;78.81
17615;BME280;8926;49.720;6.576;2022-12-16T05:49:52;99246.22;;;-5.97;78.81
17615;BME280;8926;49.720;6.576;2022-12-16T05:52:37;99247.91;;;-5.97;79.06
17615;BME280;8926;49.720;6.576;2022-12-16T05:55:21;99245.38;;;-5.94;79.41
17615;BME280;8926;49.720;6.576;2022-12-16T05:58:06;99257.22;;;-5.93;79.11
17615;BME280;8926;49.720;6.576;2022-12-16T06:00:50;99260.63;;;-5.94;79.67
17615;BME280;8926;49.720;6.576;2022-12-16T06:03:34;99265.72;;;-5.91;79.39
17615;BME280;8926;49.720;6.576;2022-12-16T06:06:18;99268.25;;;-5.85;79.17
17615;BME280;8926;49.720;6.576;2022-12-16T06:09:02;99269.94;;;-5.78;78.73
17615;BME280;8926;49.720;6.576;2022-12-16T06:11:46;99277.56;;;-5.81;78.71
17615;BME280;8926;49.720;6.576;2022-12-16T06:14:30;99269.09;;;-5.86;78.86
17615;BME280;8926;49.720;6.576;2022-12-16T06:17:14;99274.19;;;-5.89;79.25
17615;BME280;8926;49.720;6.576;2022-12-16T06:19:58;99270.78;;;-5.85;79.30
17615;BME280;8926;49.720;6.576;2022-12-16T06:22:42;99278.41;;;-5.85;78.84
17615;BME280;8926;49.720;6.576;2022-12-16T06:25:26;99282.66;;;-5.78;78.77
17615;BME280;8926;49.720;6.576;2022-12-16T06:28:10;99289.44;;;-5.80;78.15
17615;BME280;8926;49.720;6.576;2022-12-16T06:30:54;99292.84;;;-5.83;77.63
17615;BME280;8926;49.720;6.576;2022-12-16T06:33:38;99301.31;;;-5.81;78.02
17615;BME280;8926;49.720;6.576;2022-12-16T06:36:22;99303.00;;;-5.84;77.83
17615;BME280;8926;49.720;6.576;2022-12-16T06:39:06;99308.91;;;-5.88;78.33
17615;BME280;8926;49.720;6.576;2022-12-16T06:41:49;99312.34;;;-5.89;77.76
17615;BME280;8926;49.720;6.576;2022-12-16T06:44:34;99319.13;;;-5.91;78.48
17615;BME280;8926;49.720;6.576;2022-12-16T06:47:17;99314.00;;;-5.94;78.16
17615;BME280;8926;49.720;6.576;2022-12-16T06:50:01;99329.28;;;-5.94;77.57
17615;BME280;8926;49.720;6.576;2022-12-16T06:52:46;99330.97;;;-6.01;78.42
17615;BME280;8926;49.720;6.576;2022-12-16T06:55:30;99341.09;;;-6.10;78.67
17615;BME280;8926;49.720;6.576;2022-12-16T06:58:14;99341.09;;;-6.08;78.71
17615;BME280;8926;49.720;6.576;2022-12-16T07:00:58;99346.19;;;-6.07;78.49
17615;BME280;8926;49.720;6.576;2022-12-16T07:03:41;99343.66;;;-6.05;78.58
17615;BME280;8926;49.720;6.576;2022-12-16T07:06:26;99353.00;;;-6.04;78.00
17615;BME280;8926;49.720;6.576;2022-12-16T07:09:09;99353.00;;;-6.04;77.78
17615;BME280;8926;49.720;6.576;2022-12-16T07:11:53;99372.47;;;-6.09;77.81
17615;BME280;8926;49.720;6.576;2022-12-16T07:14:37;99366.56;;;-6.02;77.79
17615;BME280;8926;49.720;6.576;2022-12-16T07:17:21;99375.03;;;-5.97;77.71
17615;BME280;8926;49.720;6.576;2022-12-16T07:20:05;99372.50;;;-5.94;77.83
17615;BME280;8926;49.720;6.576;2022-12-16T07:22:50;99384.38;;;-5.93;77.80
17615;BME280;8926;49.720;6.576;2022-12-16T07:25:33;99389.44;;;-5.93;77.64
17615;BME280;8926;49.720;6.576;2022-12-16T07:28:17;99386.06;;;-5.92;77.48
17615;BME280;8926;49.720;6.576;2022-12-16T07:31:12;99380.97;;;-5.95;77.33
17615;BME280;8926;49.720;6.576;2022-12-16T07:33:56;99395.38;;;-5.97;76.90
17615;BME280;8926;49.720;6.576;2022-12-16T07:36:40;99399.59;;;-6.05;77.93
17615;BME280;8926;49.720;6.576;2022-12-16T07:39:24;99409.75;;;-6.08;78.13
17615;BME280;8926;49.720;6.576;2022-12-16T07:42:08;99414.78;;;-6.14;77.43
17615;BME280;8926;49.720;6.576;2022-12-16T07:44:52;99421.56;;;-6.13;77.90
17615;BME280;8926;49.720;6.576;2022-12-16T07:47:36;99435.13;;;-6.14;77.71
17615;BME280;8926;49.720;6.576;2022-12-16T07:50:20;99436.84;;;-6.12;77.49
17615;BME280;8926;49.720;6.576;2022-12-16T07:53:04;99440.22;;;-6.14;77.26
17615;BME280;8926;49.720;6.576;2022-12-16T07:55:47;99436.84;;;-6.13;77.37
17615;BME280;8926;49.720;6.576;2022-12-16T07:58:31;99436.84;;;-6.13;77.72
17615;BME280;8926;49.720;6.576;2022-12-16T08:01:16;99440.25;;;-6.08;77.71
17615;BME280;8926;49.720;6.576;2022-12-16T08:04:00;99445.31;;;-6.11;77.83
17615;BME280;8926;49.720;6.576;2022-12-16T08:06:44;99447.03;;;-6.07;77.47
17615;BME280;8926;49.720;6.576;2022-12-16T08:09:28;99442.81;;;-6.07;77.68
17615;BME280;8926;49.720;6.576;2022-12-16T08:12:12;99452.13;;;-6.04;77.07
17615;BME280;8926;49.720;6.576;2022-12-16T08:14:56;99459.69;;;-6.15;77.10
17615;BME280;8926;49.720;6.576;2022-12-16T08:17:50;99468.16;;;-6.16;77.54
17615;BME280;8926;49.720;6.576;2022-12-16T08:20:35;99467.28;;;-6.23;77.35
17615;BME280;8926;49.720;6.576;2022-12-16T08:23:19;99472.41;;;-6.17;78.02
17615;BME280;8926;49.720;6.576;2022-12-16T08:26:03;99474.13;;;-6.09;77.66
17615;BME280;8926;49.720;6.576;2022-12-16T08:28:47;99475.84;;;-6.08;77.70
17615;BME280;8926;49.720;6.576;2022-12-16T08:31:32;99483.50;;;-6.04;77.89
17615;BME280;8926;49.720;6.576;2022-12-16T08:34:15;99484.34;;;-6.02;77.74
17615;BME280;8926;49.720;6.576;2022-12-16T08:36:59;99488.59;;;-5.95;77.17
17615;BME280;8926;49.720;6.576;2022-12-16T08:39:43;99493.69;;;-5.96;77.20
17615;BME280;8926;49.720;6.576;2022-12-16T08:42:28;99491.91;;;-6.11;77.54
17615;BME280;8926;49.720;6.576;2022-12-16T08:45:12;99496.19;;;-6.08;77.92
17615;BME280;8926;49.720;6.576;2022-12-16T08:47:56;99496.25;;;-5.99;78.12
17615;BME280;8926;49.720;6.576;2022-12-16T08:50:40;99498.81;;;-5.92;78.23
17615;BME280;8926;49.720;6.576;2022-12-16T08:53:24;99490.31;;;-5.91;77.77
17615;BME280;8926;49.720;6.576;2022-12-16T08:56:08;99496.28;;;-5.81;77.67
17615;BME280;8926;49.720;6.576;2022-12-16T08:58:52;99496.28;;;-5.81;77.39
17615;BME280;8926;49.720;6.576;2022-12-16T09:01:36;99502.25;;;-5.76;77.50
17615;BME280;8926;49.720;6.576;2022-12-16T09:04:20;99504.84;;;-5.64;77.56
17615;BME280;8926;49.720;6.576;2022-12-16T09:07:04;99501.53;;;-5.38;78.05
17615;BME280;8926;49.720;6.576;2022-12-16T09:09:48;99505.84;;;-5.08;77.40
17615;BME280;8926;49.720;6.576;2022-12-16T09:12:31;99507.59;;;-4.40;76.94
17615;BME280;8926;49.720;6.576;2022-12-16T09:15:15;99501.41;;;-3.44;73.46
17615;BME280;8926;49.720;6.576;2022-12-16T09:17:59;99505.41;;;-2.94;71.51
17615;BME280;8926;49.720;6.576;2022-12-16T09:20:50;99491.03;;;-1.32;66.40
17615;BME280;8926;49.720;6.576;2022-12-16T09:23:33;99478.47;;;1.31;59.94
17615;BME280;8926;49.720;6.576;2022-12-16T09:26:17;99470.69;;;3.46;51.93
17615;BME280;8926;49.720;6.576;2022-12-16T09:29:01;99460.09;;;5.20;46.72
17615;BME280;8926;49.720;6.576;2022-12-16T09:31:45;99464.66;;;6.20;44.16
17615;BME280;8926;49.720;6.576;2022-12-16T09:34:29;99457.56;;;7.00;43.31
17615;BME280;8926;49.720;6.576;2022-12-16T09:37:13;99452.16;;;7.75;46.28
17615;BME280;8926;49.720;6.576;2022-12-16T09:39:57;99444.16;;;8.30;44.97
17615;BME280;8926;49.720;6.576;2022-12-16T09:42:49;99455.81;;;8.56;42.28
17615;BME280;8926;49.720;6.576;2022-12-16T09:51:22;99456.50;;;9.22;43.92
17615;BME280;8926;49.720;6.576;2022-12-16T09:54:11;99453.44;;;9.45;42.65
17615;BME280;8926;49.720;6.576;2022-12-16T09:57:00;99459.53;;;9.30;44.86
17615;BME280;8926;49.720;6.576;2022-12-16T09:59:54;99450.94;;;9.28;45.14
17615;BME280;8926;49.720;6.576;2022-12-16T10:02:40;99453.63;;;9.27;43.15
17615;BME280;8926;49.720;6.576;2022-12-16T10:05:34;99451.31;;;9.82;42.59
17615;BME280;8926;49.720;6.576;2022-12-16T10:08:42;99447.97;;;10.52;40.59
17615;BME280;8926;49.720;6.576;2022-12-16T10:14:30;99454.38;;;10.75;40.52
17615;BME280;8926;49.720;6.576;2022-12-16T10:17:24;99453.09;;;10.68;42.02
17615;BME280;8926;49.720;6.576;2022-12-16T10:20:34;99455.88;;;10.23;42.47
17615;BME280;8926;49.720;6.576;2022-12-16T10:23:46;99467.19;;;9.33;43.89
17615;BME280;8926;49.720;6.576;2022-12-16T10:26:42;99479.06;;;7.91;46.91
17615;BME280;8926;49.720;6.576;2022-12-16T10:29:30;99478.47;;;6.97;49.96
17615;BME280;8926;49.720;6.576;2022-12-16T10:32:32;99484.25;;;6.45;50.55
17615;BME280;8926;49.720;6.576;2022-12-16T10:35:31;99484.63;;;6.18;52.17
17615;BME280;8926;49.720;6.576;2022-12-16T10:38:31;99482.81;;;5.77;52.70
17615;BME280;8926;49.720;6.576;2022-12-16T10:41:21;99491.06;;;5.45;53.00
17615;BME280;8926;49.720;6.576;2022-12-16T10:44:19;99485.88;;;5.23;53.63
17615;BME280;8926;49.720;6.576;2022-12-16T10:47:05;99488.34;;;5.26;53.04
17615;BME280;8926;49.720;6.576;2022-12-16T10:49:50;99484.44;;;5.16;54.94
17615;BME280;8926;49.720;6.576;2022-12-16T10:52:43;99482.88;;;5.12;55.29
17615;BME280;8926;49.720;6.576;2022-12-16T10:58:51;99488.34;;;5.26;53.00
17615;BME280;8926;49.720;6.576;2022-12-16T11:01:36;99485.53;;;5.32;52.49
17615;BME280;8926;49.720;6.576;2022-12-16T11:13:20;99487.94;;;5.15;48.86
17615;BME280;8926;49.720;6.576;2022-12-16T11:16:13;99489.75;;;5.13;50.27
17615;BME280;8926;49.720;6.576;2022-12-16T11:18:58;99491.66;;;5.08;49.84
17615;BME280;8926;49.720;6.576;2022-12-16T11:21:42;99485.28;;;5.17;49.04
17615;BME280;8926;49.720;6.576;2022-12-16T11:24:27;99496.84;;;5.08;49.91
17615;BME280;8926;49.720;6.576;2022-12-16T11:27:21;99498.22;;;4.71;49.47
17615;BME280;8926;49.720;6.576;2022-12-16T11:30:14;99495.97;;;4.86;49.26
17615;BME280;8926;49.720;6.576;2022-12-16T11:33:05;99488.63;;;4.97;50.32
17615;BME280;8926;49.720;6.576;2022-12-16T11:35:56;99487.09;;;4.93;49.93
17615;BME280;8926;49.720;6.576;2022-12-16T11:38:45;99486.47;;;5.08;51.85
17615;BME280;8926;49.720;6.576;2022-12-16T11:41:45;99487.31;;;5.08;49.38
17615;BME280;8926;49.720;6.576;2022-12-16T11:44:38;99482.50;;;5.21;50.46
17615;BME280;8926;49.720;6.576;2022-12-16T11:47:40;99491.53;;;5.11;49.22
17615;BME280;8926;49.720;6.576;2022-12-16T11:50:27;99496.16;;;5.03;49.89
17615;BME280;8926;49.720;6.576;2022-12-16T11:56:12;99499.03;;;4.95;51.52
17615;BME280;8926;49.720;6.576;2022-12-16T11:59:01;99498.50;;;4.87;50.92
17615;BME280;8926;49.720;6.576;2022-12-16T12:01:53;99499.47;;;4.85;51.92
17615;BME280;8926;49.720;6.576;2022-12-16T12:04:37;99502.53;;;4.71;51.67
17615;BME280;8926;49.720;6.576;2022-12-16T12:07:31;99507.06;;;4.66;51.39
17615;BME280;8926;49.720;6.576;2022-12-16T12:10:35;99510.72;;;4.60;51.71
17615;BME280;8926;49.720;6.576;2022-12-16T12:13:40;99511.81;;;4.53;52.21
17615;BME280;8926;49.720;6.576;2022-12-16T12:16:31;99516.41;;;4.45;52.57
17615;BME280;8926;49.720;6.576;2022-12-16T12:19:20;99510.41;;;4.44;51.50
17615;BME280;8926;49.720;6.576;2022-12-16T12:22:34;99503.69;;;4.16;54.27
17615;BME280;8926;49.720;6.576;2022-12-16T12:25:32;99510.78;;;3.84;53.15
17615;BME280;8926;49.720;6.576;2022-12-16T12:28:28;99511.78;;;3.80;54.62
17615;BME280;8926;49.720;6.576;2022-12-16T12:34:38;99513.94;;;3.66;55.22
17615;BME280;8926;49.720;6.576;2022-12-16T12:37:39;99513.66;;;3.75;55.29
17615;BME280;8926;49.720;6.576;2022-12-16T12:43:45;99529.34;;;3.69;55.48
17615;BME280;8926;49.720;6.576;2022-12-16T12:46:48;99526.84;;;3.39;54.81
17615;BME280;8926;49.720;6.576;2022-12-16T12:50:05;99521.72;;;3.38;55.83
17615;BME280;8926;49.720;6.576;2022-12-16T12:58:50;99525.63;;;3.23;56.67
17615;BME280;8926;49.720;6.576;2022-12-16T13:01:36;99527.44;;;3.21;57.43
17615;BME280;8926;49.720;6.576;2022-12-16T13:04:24;99529.38;;;3.13;56.97
17615;BME280;8926;49.720;6.576;2022-12-16T13:07:09;99525.44;;;3.01;56.92
17615;BME280;8926;49.720;6.576;2022-12-16T13:16:10;99527.66;;;2.86;57.60
17615;BME280;8926;49.720;6.576;2022-12-16T13:22:26;99536.44;;;2.79;58.06
17615;BME280;8926;49.720;6.576;2022-12-16T13:25:43;99546.03;;;2.73;58.24
17615;BME280;8926;49.720;6.576;2022-12-16T13:28:37;99549.06;;;2.58;58.10
17615;BME280;8926;49.720;6.576;2022-12-16T13:31:22;99547.56;;;2.50;59.26
17615;BME280;8926;49.720;6.576;2022-12-16T13:34:21;99555.97;;;2.56;59.14
17615;BME280;8926;49.720;6.576;2022-12-16T13:37:24;99551.78;;;2.52;58.96
17615;BME280;8926;49.720;6.576;2022-12-16T13:40:18;99561.41;;;2.46;59.07
17615;BME280;8926;49.720;6.576;2022-12-16T13:43:02;99566.81;;;2.36;58.77
17615;BME280;8926;49.720;6.576;2022-12-16T13:48:40;99566.28;;;2.24;59.75
17615;BME280;8926;49.720;6.576;2022-12-16T13:54:42;99568.69;;;1.97;60.32
17615;BME280;8926;49.720;6.576;2022-12-16T13:57:29;99580.91;;;1.89;60.74
17615;BME280;8926;49.720;6.576;2022-12-16T14:00:21;99580.09;;;1.87;60.54
17615;BME280;8926;49.720;6.576;2022-12-16T14:06:28;99590.13;;;1.62;61.53
17615;BME280;8926;49.720;6.576;2022-12-16T14:09:33;99592.09;;;1.51;61.96
17615;BME280;8926;49.720;6.576;2022-12-16T14:12:42;99598.44;;;1.36;61.70
17615;BME280;8926;49.720;6.576;2022-12-16T14:18:41;99596.25;;;1.18;62.40
17615;BME280;8926;49.720;6.576;2022-12-16T14:21:35;99603.50;;;1.01;63.36
17615;BME280;8926;49.720;6.576;2022-12-16T14:24:24;99606.13;;;0.98;62.81
17615;BME280;8926;49.720;6.576;2022-12-16T14:27:28;99620.78;;;0.93;63.47
17615;BME280;8926;49.720;6.576;2022-12-16T14:30:20;99622.72;;;0.82;64.63
17615;BME280;8926;49.720;6.576;2022-12-16T14:33:34;99629.75;;;0.74;64.99
17615;BME280;8926;49.720;6.576;2022-12-16T14:36:26;99636.03;;;0.56;65.28
17615;BME280;8926;49.720;6.576;2022-12-16T14:39:20;99637.09;;;0.47;66.26
17615;BME280;8926;49.720;6.576;2022-12-16T14:42:19;99646.59;;;0.41;66.14
17615;BME280;8926;49.720;6.576;2022-12-16T14:45:29;99636.50;;;0.30;66.96
17615;BME280;8926;49.720;6.576;2022-12-16T14:51:23;99642.72;;;0.17;66.25
17615;BME280;8926;49.720;6.576;2022-12-16T14:57:31;99650.72;;;0.00;68.19
17615;BME280;8926;49.720;6.576;2022-12-16T15:00:17;99650.94;;;-0.15;67.85
17615;BME280;8926;49.720;6.576;2022-12-16T15:03:07;99657.91;;;-0.25;68.80
17615;BME280;8926;49.720;6.576;2022-12-16T15:05:57;99654.69;;;-0.38;68.27
17615;BME280;8926;49.720;6.576;2022-12-16T15:08:50;99659.06;;;-0.44;68.49
17615;BME280;8926;49.720;6.576;2022-12-16T15:11:35;99667.75;;;-0.54;69.34
17615;BME280;8926;49.720;6.576;2022-12-16T15:14:28;99676.44;;;-0.64;69.79
17615;BME280;8926;49.720;6.576;2022-12-16T15:17:20;99667.91;;;-0.66;70.64
17615;BME280;8926;49.720;6.576;2022-12-16T15:20:09;99672.25;;;-0.73;71.29
17615;BME280;8926;49.720;6.576;2022-12-16T15:22:58;99684.22;;;-0.74;70.33
17615;BME280;8926;49.720;6.576;2022-12-16T15:25:48;99690.22;;;-0.75;70.64
17615;BME280;8926;49.720;6.576;2022-12-16T15:28:42;99697.16;;;-0.80;70.69
17615;BME280;8926;49.720;6.576;2022-12-16T15:31:32;99708.31;;;-0.84;70.83
17615;BME280;8926;49.720;6.576;2022-12-16T15:34:31;99710.09;;;-0.92;71.70
17615;BME280;8926;49.720;6.576;2022-12-16T15:37:23;99710.97;;;-0.93;71.45
17615;BME280;8926;49.720;6.576;2022-12-16T15:40:22;99718.63;;;-0.91;71.39
17615;BME280;8926;49.720;6.576;2022-12-16T15:46:03;99731.53;;;-0.99;72.11
17615;BME280;8926;49.720;6.576;2022-12-16T15:48:49;99738.47;;;-1.07;71.99
17615;BME280;8926;49.720;6.576;2022-12-16T15:51:45;99734.19;;;-1.07;72.04
17615;BME280;8926;49.720;6.576;2022-12-16T15:54:30;99746.13;;;-1.06;71.62
17615;BME280;8926;49.720;6.576;2022-12-16T15:57:29;99750.41;;;-1.06;71.89
17615;BME280;8926;49.720;6.576;2022-12-16T16:00:30;99756.47;;;-1.15;72.53
17615;BME280;8926;49.720;6.576;2022-12-16T16:06:15;99760.06;;;-1.34;73.13
17615;BME280;8926;49.720;6.576;2022-12-16T16:09:00;99776.31;;;-1.37;72.60
17615;BME280;8926;49.720;6.576;2022-12-16T16:11:44;99769.53;;;-1.44;72.83
17615;BME280;8926;49.720;6.576;2022-12-16T16:14:28;99778.13;;;-1.54;73.29
17615;BME280;8926;49.720;6.576;2022-12-16T16:17:30;99781.63;;;-1.61;73.60